sensor_id;sensor_type;location;lat;lon;timestamp;P1;durP1;ratioP1;P2;durP2;ratioP2
5157;SDS011;2598;52.364;9.772;2023-06-10T00:02:16;9.70;;;3.43;;
5157;SDS011;2598;52.364;9.772;2023-06-10T00:04:42;8.63;;;3.40;;
5157;SDS011;2598;52.364;9.772;2023-06-10T00:07:08;9.37;;;3.20;;
5157;SDS011;2598;52.364;9.772;2023-06-10T00:09:37;12.37;;;3.80;;
5157;SDS011;2598;52.364;9.772;2023-06-10T00:12:04;10.57;;;4.07;;
5157;SDS011;2598;52.364;9.772;2023-06-10T00:14:30;6.40;;;3.33;;
5157;SDS011;2598;52.364;9.772;2023-06-10T00:16:56;8.70;;;3.40;;
5157;SDS011;2598;52.364;9.772;2023-06-10T00:19:22;8.33;;;2.97;;
5157;SDS011;2598;52.364;9.772;2023-06-10T00:21:50;10.00;;;3.30;;
5157;SDS011;2598;52.364;9.772;2023-06-10T00:24:17;6.70;;;3.37;;
5157;SDS011;2598;52.364;9.772;2023-06-10T00:26:43;7.63;;;3.47;;
5157;SDS011;2598;52.364;9.772;2023-06-10T00:29:09;7.67;;;3.57;;
5157;SDS011;2598;52.364;9.772;2023-06-10T00:31:35;7.37;;;3.50;;
5157;SDS011;2598;52.364;9.772;2023-06-10T00:34:01;9.87;;;3.53;;
5157;SDS011;2598;52.364;9.772;2023-06-10T00:36:27;8.67;;;3.53;;
5157;SDS011;2598;52.364;9.772;2023-06-10T00:38:53;7.10;;;3.67;;
5157;SDS011;2598;52.364;9.772;2023-06-10T00:41:19;11.70;;;3.57;;
5157;SDS011;2598;52.364;9.772;2023-06-10T00:43:45;10.20;;;3.73;;
5157;SDS011;2598;52.364;9.772;2023-06-10T00:46:11;8.40;;;3.20;;
5157;SDS011;2598;52.364;9.772;2023-06-10T00:48:38;10.40;;;3.47;;
5157;SDS011;2598;52.364;9.772;2023-06-10T00:51:05;8.53;;;4.10;;
5157;SDS011;2598;52.364;9.772;2023-06-10T00:53:31;7.37;;;3.53;;
5157;SDS011;2598;52.364;9.772;2023-06-10T00:55:58;11.43;;;4.30;;
5157;SDS011;2598;52.364;9.772;2023-06-10T00:58:24;7.93;;;3.70;;
5157;SDS011;2598;52.364;9.772;2023-06-10T01:00:50;10.20;;;4.23;;
5157;SDS011;2598;52.364;9.772;2023-06-10T01:03:17;8.03;;;3.40;;
5157;SDS011;2598;52.364;9.772;2023-06-10T01:05:43;10.57;;;3.90;;
5157;SDS011;2598;52.364;9.772;2023-06-10T01:08:20;9.23;;;3.70;;
5157;SDS011;2598;52.364;9.772;2023-06-10T01:11:03;9.07;;;3.73;;
5157;SDS011;2598;52.364;9.772;2023-06-10T01:13:30;6.43;;;3.60;;
5157;SDS011;2598;52.364;9.772;2023-06-10T01:15:57;11.67;;;3.63;;
5157;SDS011;2598;52.364;9.772;2023-06-10T01:18:29;7.77;;;3.53;;
5157;SDS011;2598;52.364;9.772;2023-06-10T01:20:55;7.80;;;3.50;;
5157;SDS011;2598;52.364;9.772;2023-06-10T01:23:22;8.67;;;3.70;;
5157;SDS011;2598;52.364;9.772;2023-06-10T01:25:56;7.47;;;3.37;;
5157;SDS011;2598;52.364;9.772;2023-06-10T01:28:31;6.80;;;2.80;;
5157;SDS011;2598;52.364;9.772;2023-06-10T01:31:09;11.03;;;4.20;;
5157;SDS011;2598;52.364;9.772;2023-06-10T01:33:40;7.73;;;4.07;;
5157;SDS011;2598;52.364;9.772;2023-06-10T01:36:07;9.27;;;4.10;;
5157;SDS011;2598;52.364;9.772;2023-06-10T01:38:34;10.53;;;3.80;;
5157;SDS011;2598;52.364;9.772;2023-06-10T01:41:02;7.30;;;4.07;;
5157;SDS011;2598;52.364;9.772;2023-06-10T01:43:28;10.40;;;4.03;;
5157;SDS011;2598;52.364;9.772;2023-06-10T01:45:57;9.50;;;3.93;;
5157;SDS011;2598;52.364;9.772;2023-06-10T01:48:23;9.10;;;4.10;;
5157;SDS011;2598;52.364;9.772;2023-06-10T01:50:49;10.90;;;3.77;;
5157;SDS011;2598;52.364;9.772;2023-06-10T01:53:15;9.00;;;3.90;;
5157;SDS011;2598;52.364;9.772;2023-06-10T01:55:41;7.70;;;3.50;;
5157;SDS011;2598;52.364;9.772;2023-06-10T01:58:07;14.53;;;4.33;;
5157;SDS011;2598;52.364;9.772;2023-06-10T02:00:33;8.40;;;3.47;;
5157;SDS011;2598;52.364;9.772;2023-06-10T02:02:59;10.40;;;4.23;;
5157;SDS011;2598;52.364;9.772;2023-06-10T02:05:25;10.03;;;4.03;;
5157;SDS011;2598;52.364;9.772;2023-06-10T02:07:51;7.73;;;3.60;;
5157;SDS011;2598;52.364;9.772;2023-06-10T02:10:17;6.70;;;3.40;;
5157;SDS011;2598;52.364;9.772;2023-06-10T02:12:42;10.10;;;4.63;;
5157;SDS011;2598;52.364;9.772;2023-06-10T02:15:08;8.90;;;3.40;;
5157;SDS011;2598;52.364;9.772;2023-06-10T02:17:34;12.43;;;4.10;;
5157;SDS011;2598;52.364;9.772;2023-06-10T02:20:01;10.43;;;3.80;;
5157;SDS011;2598;52.364;9.772;2023-06-10T02:22:31;9.70;;;4.47;;
5157;SDS011;2598;52.364;9.772;2023-06-10T02:24:57;9.47;;;4.10;;
5157;SDS011;2598;52.364;9.772;2023-06-10T02:27:23;8.93;;;3.60;;
5157;SDS011;2598;52.364;9.772;2023-06-10T02:29:49;9.97;;;4.30;;
5157;SDS011;2598;52.364;9.772;2023-06-10T02:32:15;12.83;;;3.67;;
5157;SDS011;2598;52.364;9.772;2023-06-10T02:34:42;9.13;;;4.07;;
5157;SDS011;2598;52.364;9.772;2023-06-10T02:37:08;12.67;;;4.57;;
5157;SDS011;2598;52.364;9.772;2023-06-10T02:39:34;9.43;;;4.30;;
5157;SDS011;2598;52.364;9.772;2023-06-10T02:42:00;9.60;;;4.27;;
5157;SDS011;2598;52.364;9.772;2023-06-10T02:44:26;7.30;;;4.00;;
5157;SDS011;2598;52.364;9.772;2023-06-10T02:46:52;13.50;;;3.90;;
5157;SDS011;2598;52.364;9.772;2023-06-10T02:49:18;9.80;;;4.40;;
5157;SDS011;2598;52.364;9.772;2023-06-10T02:51:44;10.00;;;4.00;;
5157;SDS011;2598;52.364;9.772;2023-06-10T02:54:10;9.10;;;4.20;;
5157;SDS011;2598;52.364;9.772;2023-06-10T02:56:36;9.33;;;4.27;;
5157;SDS011;2598;52.364;9.772;2023-06-10T02:59:06;8.70;;;4.27;;
5157;SDS011;2598;52.364;9.772;2023-06-10T03:01:33;16.57;;;4.63;;
5157;SDS011;2598;52.364;9.772;2023-06-10T03:04:01;15.73;;;4.67;;
5157;SDS011;2598;52.364;9.772;2023-06-10T03:06:27;9.60;;;4.73;;
5157;SDS011;2598;52.364;9.772;2023-06-10T03:08:54;10.43;;;4.23;;
5157;SDS011;2598;52.364;9.772;2023-06-10T03:11:20;10.67;;;4.40;;
5157;SDS011;2598;52.364;9.772;2023-06-10T03:13:46;12.13;;;4.77;;
5157;SDS011;2598;52.364;9.772;2023-06-10T03:16:12;11.23;;;4.00;;
5157;SDS011;2598;52.364;9.772;2023-06-10T03:18:38;10.73;;;4.67;;
5157;SDS011;2598;52.364;9.772;2023-06-10T03:21:04;13.00;;;4.70;;
5157;SDS011;2598;52.364;9.772;2023-06-10T03:23:29;11.03;;;4.50;;
5157;SDS011;2598;52.364;9.772;2023-06-10T03:25:55;12.80;;;4.87;;
5157;SDS011;2598;52.364;9.772;2023-06-10T03:28:21;13.40;;;4.30;;
5157;SDS011;2598;52.364;9.772;2023-06-10T03:30:47;11.93;;;4.60;;
5157;SDS011;2598;52.364;9.772;2023-06-10T03:33:13;17.87;;;5.20;;
5157;SDS011;2598;52.364;9.772;2023-06-10T03:35:40;16.07;;;5.27;;
5157;SDS011;2598;52.364;9.772;2023-06-10T03:38:06;13.40;;;4.83;;
5157;SDS011;2598;52.364;9.772;2023-06-10T03:40:32;10.10;;;4.77;;
5157;SDS011;2598;52.364;9.772;2023-06-10T03:42:58;20.87;;;4.77;;
5157;SDS011;2598;52.364;9.772;2023-06-10T03:45:24;9.80;;;4.23;;
5157;SDS011;2598;52.364;9.772;2023-06-10T03:47:53;9.43;;;3.80;;
5157;SDS011;2598;52.364;9.772;2023-06-10T03:50:18;13.30;;;5.70;;
5157;SDS011;2598;52.364;9.772;2023-06-10T03:52:44;9.70;;;4.60;;
5157;SDS011;2598;52.364;9.772;2023-06-10T03:55:11;10.50;;;4.57;;
5157;SDS011;2598;52.364;9.772;2023-06-10T03:57:38;11.50;;;4.87;;
5157;SDS011;2598;52.364;9.772;2023-06-10T04:00:04;15.17;;;4.97;;
5157;SDS011;2598;52.364;9.772;2023-06-10T04:02:37;13.40;;;4.93;;
5157;SDS011;2598;52.364;9.772;2023-06-10T04:05:17;9.37;;;4.77;;
5157;SDS011;2598;52.364;9.772;2023-06-10T04:07:43;11.60;;;5.83;;
5157;SDS011;2598;52.364;9.772;2023-06-10T04:10:12;13.30;;;4.93;;
5157;SDS011;2598;52.364;9.772;2023-06-10T04:12:38;11.80;;;4.87;;
5157;SDS011;2598;52.364;9.772;2023-06-10T04:15:04;13.50;;;5.77;;
5157;SDS011;2598;52.364;9.772;2023-06-10T04:17:30;12.70;;;5.40;;
5157;SDS011;2598;52.364;9.772;2023-06-10T04:19:56;12.00;;;5.50;;
5157;SDS011;2598;52.364;9.772;2023-06-10T04:22:25;11.03;;;5.20;;
5157;SDS011;2598;52.364;9.772;2023-06-10T04:24:51;11.07;;;5.40;;
5157;SDS011;2598;52.364;9.772;2023-06-10T04:27:17;13.60;;;5.87;;
5157;SDS011;2598;52.364;9.772;2023-06-10T04:29:43;11.40;;;5.07;;
5157;SDS011;2598;52.364;9.772;2023-06-10T04:32:09;9.87;;;5.67;;
5157;SDS011;2598;52.364;9.772;2023-06-10T04:34:36;12.53;;;4.50;;
5157;SDS011;2598;52.364;9.772;2023-06-10T04:37:04;12.10;;;5.20;;
5157;SDS011;2598;52.364;9.772;2023-06-10T04:39:30;16.90;;;5.60;;
5157;SDS011;2598;52.364;9.772;2023-06-10T04:41:56;17.20;;;5.77;;
5157;SDS011;2598;52.364;9.772;2023-06-10T04:44:22;10.63;;;4.87;;
5157;SDS011;2598;52.364;9.772;2023-06-10T04:46:48;9.03;;;4.80;;
5157;SDS011;2598;52.364;9.772;2023-06-10T04:49:14;11.17;;;5.27;;
5157;SDS011;2598;52.364;9.772;2023-06-10T04:51:40;10.20;;;5.40;;
5157;SDS011;2598;52.364;9.772;2023-06-10T04:54:06;14.57;;;5.50;;
5157;SDS011;2598;52.364;9.772;2023-06-10T04:56:32;14.97;;;5.10;;
5157;SDS011;2598;52.364;9.772;2023-06-10T04:58:58;12.80;;;5.10;;
5157;SDS011;2598;52.364;9.772;2023-06-10T05:01:24;13.30;;;5.17;;
5157;SDS011;2598;52.364;9.772;2023-06-10T05:03:50;11.60;;;5.20;;
5157;SDS011;2598;52.364;9.772;2023-06-10T05:06:16;12.00;;;4.83;;
5157;SDS011;2598;52.364;9.772;2023-06-10T05:08:42;11.43;;;4.63;;
5157;SDS011;2598;52.364;9.772;2023-06-10T05:11:07;12.50;;;5.43;;
5157;SDS011;2598;52.364;9.772;2023-06-10T05:13:33;18.13;;;5.57;;
5157;SDS011;2598;52.364;9.772;2023-06-10T05:15:59;13.17;;;6.13;;
5157;SDS011;2598;52.364;9.772;2023-06-10T05:18:25;10.90;;;4.90;;
5157;SDS011;2598;52.364;9.772;2023-06-10T05:20:51;13.23;;;5.20;;
5157;SDS011;2598;52.364;9.772;2023-06-10T05:23:18;14.00;;;4.90;;
5157;SDS011;2598;52.364;9.772;2023-06-10T05:25:44;15.60;;;5.70;;
5157;SDS011;2598;52.364;9.772;2023-06-10T05:28:10;14.33;;;5.00;;
5157;SDS011;2598;52.364;9.772;2023-06-10T05:30:37;11.33;;;4.90;;
5157;SDS011;2598;52.364;9.772;2023-06-10T05:33:03;13.43;;;5.80;;
5157;SDS011;2598;52.364;9.772;2023-06-10T05:35:29;16.50;;;5.30;;
5157;SDS011;2598;52.364;9.772;2023-06-10T05:37:55;16.83;;;5.73;;
5157;SDS011;2598;52.364;9.772;2023-06-10T05:40:21;13.37;;;5.70;;
5157;SDS011;2598;52.364;9.772;2023-06-10T05:42:47;10.33;;;5.17;;
5157;SDS011;2598;52.364;9.772;2023-06-10T05:45:13;11.80;;;5.20;;
5157;SDS011;2598;52.364;9.772;2023-06-10T05:47:39;15.37;;;4.70;;
5157;SDS011;2598;52.364;9.772;2023-06-10T05:50:05;15.87;;;5.27;;
5157;SDS011;2598;52.364;9.772;2023-06-10T05:52:35;10.93;;;4.73;;
5157;SDS011;2598;52.364;9.772;2023-06-10T05:55:04;11.60;;;4.70;;
5157;SDS011;2598;52.364;9.772;2023-06-10T05:57:31;11.80;;;5.80;;
5157;SDS011;2598;52.364;9.772;2023-06-10T05:59:57;14.23;;;5.97;;
5157;SDS011;2598;52.364;9.772;2023-06-10T06:02:23;12.93;;;5.90;;
5157;SDS011;2598;52.364;9.772;2023-06-10T06:04:49;14.00;;;5.43;;
5157;SDS011;2598;52.364;9.772;2023-06-10T06:07:15;17.00;;;6.70;;
5157;SDS011;2598;52.364;9.772;2023-06-10T06:09:41;14.57;;;6.33;;
5157;SDS011;2598;52.364;9.772;2023-06-10T06:12:07;10.93;;;6.07;;
5157;SDS011;2598;52.364;9.772;2023-06-10T06:14:36;12.37;;;5.10;;
5157;SDS011;2598;52.364;9.772;2023-06-10T06:17:02;21.93;;;5.87;;
5157;SDS011;2598;52.364;9.772;2023-06-10T06:19:28;13.77;;;6.00;;
5157;SDS011;2598;52.364;9.772;2023-06-10T06:21:54;10.30;;;4.83;;
5157;SDS011;2598;52.364;9.772;2023-06-10T06:24:20;11.60;;;5.00;;
5157;SDS011;2598;52.364;9.772;2023-06-10T06:26:46;12.30;;;6.00;;
5157;SDS011;2598;52.364;9.772;2023-06-10T06:29:12;11.17;;;5.77;;
5157;SDS011;2598;52.364;9.772;2023-06-10T06:31:38;11.20;;;5.40;;
5157;SDS011;2598;52.364;9.772;2023-06-10T06:34:03;11.37;;;5.60;;
5157;SDS011;2598;52.364;9.772;2023-06-10T06:36:29;12.27;;;6.33;;
5157;SDS011;2598;52.364;9.772;2023-06-10T06:38:55;12.93;;;5.77;;
5157;SDS011;2598;52.364;9.772;2023-06-10T06:41:23;13.63;;;5.93;;
5157;SDS011;2598;52.364;9.772;2023-06-10T06:43:50;11.60;;;5.13;;
5157;SDS011;2598;52.364;9.772;2023-06-10T06:46:16;12.80;;;5.87;;
5157;SDS011;2598;52.364;9.772;2023-06-10T06:48:42;10.40;;;4.80;;
5157;SDS011;2598;52.364;9.772;2023-06-10T06:51:08;11.83;;;6.23;;
5157;SDS011;2598;52.364;9.772;2023-06-10T06:53:34;12.93;;;5.90;;
5157;SDS011;2598;52.364;9.772;2023-06-10T06:56:01;15.60;;;5.67;;
5157;SDS011;2598;52.364;9.772;2023-06-10T06:58:27;16.10;;;5.53;;
5157;SDS011;2598;52.364;9.772;2023-06-10T07:00:53;13.40;;;5.40;;
5157;SDS011;2598;52.364;9.772;2023-06-10T07:03:19;13.03;;;5.53;;
5157;SDS011;2598;52.364;9.772;2023-06-10T07:05:45;15.40;;;5.30;;
5157;SDS011;2598;52.364;9.772;2023-06-10T07:08:12;15.00;;;5.87;;
5157;SDS011;2598;52.364;9.772;2023-06-10T07:10:38;13.43;;;5.23;;
5157;SDS011;2598;52.364;9.772;2023-06-10T07:13:03;10.83;;;5.87;;
5157;SDS011;2598;52.364;9.772;2023-06-10T07:15:30;33.53;;;5.43;;
5157;SDS011;2598;52.364;9.772;2023-06-10T07:17:56;12.47;;;5.50;;
5157;SDS011;2598;52.364;9.772;2023-06-10T07:20:21;12.30;;;5.63;;
5157;SDS011;2598;52.364;9.772;2023-06-10T07:22:47;9.17;;;4.83;;
5157;SDS011;2598;52.364;9.772;2023-06-10T07:25:13;12.63;;;5.27;;
5157;SDS011;2598;52.364;9.772;2023-06-10T07:27:40;13.20;;;5.70;;
5157;SDS011;2598;52.364;9.772;2023-06-10T07:30:06;10.77;;;4.70;;
5157;SDS011;2598;52.364;9.772;2023-06-10T07:32:33;14.73;;;5.80;;
5157;SDS011;2598;52.364;9.772;2023-06-10T07:34:59;12.60;;;6.20;;
5157;SDS011;2598;52.364;9.772;2023-06-10T07:37:25;10.73;;;4.50;;
5157;SDS011;2598;52.364;9.772;2023-06-10T07:39:51;13.60;;;5.60;;
5157;SDS011;2598;52.364;9.772;2023-06-10T07:42:17;14.27;;;5.30;;
5157;SDS011;2598;52.364;9.772;2023-06-10T07:44:43;11.13;;;5.17;;
5157;SDS011;2598;52.364;9.772;2023-06-10T07:47:09;12.00;;;5.27;;
5157;SDS011;2598;52.364;9.772;2023-06-10T07:49:35;12.50;;;5.73;;
5157;SDS011;2598;52.364;9.772;2023-06-10T07:52:00;11.80;;;5.30;;
5157;SDS011;2598;52.364;9.772;2023-06-10T07:54:26;13.33;;;4.90;;
5157;SDS011;2598;52.364;9.772;2023-06-10T07:56:52;12.27;;;6.00;;
5157;SDS011;2598;52.364;9.772;2023-06-10T07:59:18;12.67;;;5.20;;
5157;SDS011;2598;52.364;9.772;2023-06-10T08:01:44;13.10;;;5.70;;
5157;SDS011;2598;52.364;9.772;2023-06-10T08:04:11;11.60;;;4.80;;
5157;SDS011;2598;52.364;9.772;2023-06-10T08:06:37;13.20;;;6.03;;
5157;SDS011;2598;52.364;9.772;2023-06-10T08:09:03;10.23;;;4.97;;
5157;SDS011;2598;52.364;9.772;2023-06-10T08:11:29;15.20;;;5.37;;
5157;SDS011;2598;52.364;9.772;2023-06-10T08:13:55;10.60;;;4.80;;
5157;SDS011;2598;52.364;9.772;2023-06-10T08:16:21;10.87;;;5.07;;
5157;SDS011;2598;52.364;9.772;2023-06-10T08:18:47;13.37;;;5.80;;
5157;SDS011;2598;52.364;9.772;2023-06-10T08:21:15;10.50;;;4.37;;
5157;SDS011;2598;52.364;9.772;2023-06-10T08:23:41;10.50;;;5.00;;
5157;SDS011;2598;52.364;9.772;2023-06-10T08:26:07;9.97;;;5.40;;
5157;SDS011;2598;52.364;9.772;2023-06-10T08:28:33;11.20;;;5.20;;
5157;SDS011;2598;52.364;9.772;2023-06-10T08:30:58;11.03;;;5.30;;
5157;SDS011;2598;52.364;9.772;2023-06-10T08:33:24;11.00;;;5.10;;
5157;SDS011;2598;52.364;9.772;2023-06-10T08:35:50;11.20;;;4.30;;
5157;SDS011;2598;52.364;9.772;2023-06-10T08:38:16;9.20;;;4.33;;
5157;SDS011;2598;52.364;9.772;2023-06-10T08:40:42;11.00;;;5.10;;
5157;SDS011;2598;52.364;9.772;2023-06-10T08:43:20;9.47;;;4.87;;
5157;SDS011;2598;52.364;9.772;2023-06-10T08:45:48;13.83;;;4.57;;
5157;SDS011;2598;52.364;9.772;2023-06-10T08:48:14;9.90;;;4.70;;
5157;SDS011;2598;52.364;9.772;2023-06-10T08:50:42;11.97;;;4.70;;
5157;SDS011;2598;52.364;9.772;2023-06-10T08:53:08;6.97;;;4.07;;
5157;SDS011;2598;52.364;9.772;2023-06-10T08:55:41;8.53;;;4.70;;
5157;SDS011;2598;52.364;9.772;2023-06-10T08:58:07;9.60;;;5.03;;
5157;SDS011;2598;52.364;9.772;2023-06-10T09:00:33;8.27;;;4.50;;
5157;SDS011;2598;52.364;9.772;2023-06-10T09:03:00;7.50;;;3.93;;
5157;SDS011;2598;52.364;9.772;2023-06-10T09:05:28;11.47;;;4.53;;
5157;SDS011;2598;52.364;9.772;2023-06-10T09:07:56;11.10;;;4.70;;
5157;SDS011;2598;52.364;9.772;2023-06-10T09:10:23;15.33;;;5.03;;
5157;SDS011;2598;52.364;9.772;2023-06-10T09:12:50;9.97;;;4.70;;
5157;SDS011;2598;52.364;9.772;2023-06-10T09:15:16;8.70;;;4.17;;
5157;SDS011;2598;52.364;9.772;2023-06-10T09:17:42;9.30;;;4.73;;
5157;SDS011;2598;52.364;9.772;2023-06-10T09:20:08;8.80;;;3.90;;
5157;SDS011;2598;52.364;9.772;2023-06-10T09:22:34;9.70;;;4.83;;
5157;SDS011;2598;52.364;9.772;2023-06-10T09:25:04;8.63;;;4.67;;
5157;SDS011;2598;52.364;9.772;2023-06-10T09:27:32;9.43;;;4.47;;
5157;SDS011;2598;52.364;9.772;2023-06-10T09:29:58;8.17;;;4.30;;
5157;SDS011;2598;52.364;9.772;2023-06-10T09:32:24;11.10;;;4.13;;
5157;SDS011;2598;52.364;9.772;2023-06-10T09:34:50;9.23;;;4.60;;
5157;SDS011;2598;52.364;9.772;2023-06-10T09:37:19;12.30;;;4.27;;
5157;SDS011;2598;52.364;9.772;2023-06-10T09:39:59;9.80;;;3.97;;
5157;SDS011;2598;52.364;9.772;2023-06-10T09:42:26;11.60;;;4.20;;
5157;SDS011;2598;52.364;9.772;2023-06-10T09:44:52;6.53;;;4.30;;
5157;SDS011;2598;52.364;9.772;2023-06-10T09:47:21;9.50;;;4.67;;
5157;SDS011;2598;52.364;9.772;2023-06-10T09:49:48;10.37;;;4.63;;
5157;SDS011;2598;52.364;9.772;2023-06-10T09:52:14;11.10;;;4.70;;
5157;SDS011;2598;52.364;9.772;2023-06-10T09:54:39;11.27;;;4.70;;
5157;SDS011;2598;52.364;9.772;2023-06-10T09:57:08;11.97;;;5.20;;
5157;SDS011;2598;52.364;9.772;2023-06-10T09:59:35;9.87;;;4.57;;
5157;SDS011;2598;52.364;9.772;2023-06-10T10:02:03;10.83;;;4.30;;
5157;SDS011;2598;52.364;9.772;2023-06-10T10:04:29;9.70;;;3.83;;
5157;SDS011;2598;52.364;9.772;2023-06-10T10:06:55;13.73;;;4.43;;
5157;SDS011;2598;52.364;9.772;2023-06-10T10:09:21;12.40;;;4.53;;
5157;SDS011;2598;52.364;9.772;2023-06-10T10:11:47;10.10;;;4.50;;
5157;SDS011;2598;52.364;9.772;2023-06-10T10:14:14;9.70;;;4.60;;
5157;SDS011;2598;52.364;9.772;2023-06-10T10:16:42;10.80;;;4.33;;
5157;SDS011;2598;52.364;9.772;2023-06-10T10:19:10;8.53;;;4.90;;
5157;SDS011;2598;52.364;9.772;2023-06-10T10:21:43;9.57;;;4.73;;
5157;SDS011;2598;52.364;9.772;2023-06-10T10:24:11;9.33;;;4.47;;
5157;SDS011;2598;52.364;9.772;2023-06-10T10:26:38;12.43;;;4.70;;
5157;SDS011;2598;52.364;9.772;2023-06-10T10:29:14;9.60;;;4.77;;
5157;SDS011;2598;52.364;9.772;2023-06-10T10:31:40;10.47;;;4.40;;
5157;SDS011;2598;52.364;9.772;2023-06-10T10:34:09;12.73;;;4.67;;
5157;SDS011;2598;52.364;9.772;2023-06-10T10:36:37;8.70;;;5.10;;
5157;SDS011;2598;52.364;9.772;2023-06-10T10:39:04;9.40;;;4.20;;
5157;SDS011;2598;52.364;9.772;2023-06-10T10:41:30;10.53;;;4.90;;
5157;SDS011;2598;52.364;9.772;2023-06-10T10:43:57;10.07;;;4.80;;
5157;SDS011;2598;52.364;9.772;2023-06-10T10:46:23;10.30;;;5.20;;
5157;SDS011;2598;52.364;9.772;2023-06-10T10:48:53;6.80;;;4.00;;
5157;SDS011;2598;52.364;9.772;2023-06-10T10:51:19;10.73;;;4.50;;
5157;SDS011;2598;52.364;9.772;2023-06-10T10:54:09;6.83;;;4.40;;
5157;SDS011;2598;52.364;9.772;2023-06-10T10:56:31;8.10;;;4.50;;
5157;SDS011;2598;52.364;9.772;2023-06-10T10:59:06;8.60;;;4.37;;
5157;SDS011;2598;52.364;9.772;2023-06-10T11:01:39;14.10;;;5.33;;
5157;SDS011;2598;52.364;9.772;2023-06-10T11:04:06;11.60;;;4.77;;
5157;SDS011;2598;52.364;9.772;2023-06-10T11:06:33;11.27;;;5.00;;
5157;SDS011;2598;52.364;9.772;2023-06-10T11:08:59;12.03;;;5.10;;
5157;SDS011;2598;52.364;9.772;2023-06-10T11:11:26;10.70;;;5.07;;
5157;SDS011;2598;52.364;9.772;2023-06-10T11:13:57;12.27;;;5.37;;
5157;SDS011;2598;52.364;9.772;2023-06-10T11:16:25;12.33;;;5.47;;
5157;SDS011;2598;52.364;9.772;2023-06-10T11:18:53;9.60;;;5.40;;
5157;SDS011;2598;52.364;9.772;2023-06-10T11:21:19;12.20;;;5.33;;
5157;SDS011;2598;52.364;9.772;2023-06-10T11:23:45;11.83;;;5.70;;
5157;SDS011;2598;52.364;9.772;2023-06-10T11:28:37;10.90;;;5.27;;
5157;SDS011;2598;52.364;9.772;2023-06-10T11:31:03;7.90;;;4.97;;
5157;SDS011;2598;52.364;9.772;2023-06-10T11:33:29;9.97;;;5.67;;
5157;SDS011;2598;52.364;9.772;2023-06-10T11:35:55;11.20;;;4.87;;
5157;SDS011;2598;52.364;9.772;2023-06-10T11:38:23;7.20;;;4.20;;
5157;SDS011;2598;52.364;9.772;2023-06-10T11:40:49;11.73;;;5.23;;
5157;SDS011;2598;52.364;9.772;2023-06-10T11:43:18;7.93;;;5.27;;
5157;SDS011;2598;52.364;9.772;2023-06-10T11:45:44;12.00;;;5.50;;
5157;SDS011;2598;52.364;9.772;2023-06-10T11:48:10;10.87;;;4.87;;
5157;SDS011;2598;52.364;9.772;2023-06-10T11:50:36;8.87;;;5.20;;
5157;SDS011;2598;52.364;9.772;2023-06-10T11:53:02;8.37;;;4.80;;
5157;SDS011;2598;52.364;9.772;2023-06-10T11:55:44;8.80;;;5.80;;
5157;SDS011;2598;52.364;9.772;2023-06-10T11:58:17;9.10;;;4.80;;
5157;SDS011;2598;52.364;9.772;2023-06-10T12:00:53;10.87;;;5.73;;
5157;SDS011;2598;52.364;9.772;2023-06-10T12:03:19;10.67;;;5.53;;
5157;SDS011;2598;52.364;9.772;2023-06-10T12:06:00;11.27;;;5.90;;
5157;SDS011;2598;52.364;9.772;2023-06-10T12:08:27;9.43;;;5.47;;
5157;SDS011;2598;52.364;9.772;2023-06-10T12:10:53;9.47;;;5.47;;
5157;SDS011;2598;52.364;9.772;2023-06-10T12:13:19;7.30;;;4.97;;
5157;SDS011;2598;52.364;9.772;2023-06-10T12:15:45;8.43;;;5.37;;
5157;SDS011;2598;52.364;9.772;2023-06-10T12:18:18;7.50;;;5.47;;
5157;SDS011;2598;52.364;9.772;2023-06-10T12:20:44;10.60;;;5.73;;
5157;SDS011;2598;52.364;9.772;2023-06-10T12:23:11;10.30;;;5.87;;
5157;SDS011;2598;52.364;9.772;2023-06-10T12:25:37;8.33;;;5.00;;
5157;SDS011;2598;52.364;9.772;2023-06-10T12:28:04;8.07;;;5.50;;
5157;SDS011;2598;52.364;9.772;2023-06-10T12:30:31;9.00;;;5.50;;
5157;SDS011;2598;52.364;9.772;2023-06-10T12:32:57;13.77;;;5.80;;
5157;SDS011;2598;52.364;9.772;2023-06-10T12:35:26;11.73;;;5.90;;
5157;SDS011;2598;52.364;9.772;2023-06-10T12:37:57;9.13;;;6.13;;
5157;SDS011;2598;52.364;9.772;2023-06-10T12:40:29;9.33;;;5.17;;
5157;SDS011;2598;52.364;9.772;2023-06-10T12:42:56;11.43;;;6.10;;
5157;SDS011;2598;52.364;9.772;2023-06-10T12:45:32;11.03;;;6.00;;
5157;SDS011;2598;52.364;9.772;2023-06-10T12:48:04;9.23;;;5.33;;
5157;SDS011;2598;52.364;9.772;2023-06-10T12:50:31;11.50;;;5.90;;
5157;SDS011;2598;52.364;9.772;2023-06-10T12:52:58;8.60;;;5.40;;
5157;SDS011;2598;52.364;9.772;2023-06-10T12:55:24;7.53;;;5.73;;
5157;SDS011;2598;52.364;9.772;2023-06-10T12:57:50;9.97;;;5.60;;
5157;SDS011;2598;52.364;9.772;2023-06-10T13:00:17;7.50;;;5.00;;
5157;SDS011;2598;52.364;9.772;2023-06-10T13:02:44;13.57;;;6.13;;
5157;SDS011;2598;52.364;9.772;2023-06-10T13:05:10;10.03;;;5.10;;
5157;SDS011;2598;52.364;9.772;2023-06-10T13:07:36;11.00;;;5.50;;
5157;SDS011;2598;52.364;9.772;2023-06-10T13:10:02;9.97;;;5.20;;
5157;SDS011;2598;52.364;9.772;2023-06-10T13:12:28;9.93;;;5.00;;
5157;SDS011;2598;52.364;9.772;2023-06-10T13:14:54;11.50;;;5.70;;
5157;SDS011;2598;52.364;9.772;2023-06-10T13:17:20;8.23;;;4.97;;
5157;SDS011;2598;52.364;9.772;2023-06-10T13:19:46;9.63;;;5.50;;
5157;SDS011;2598;52.364;9.772;2023-06-10T13:22:13;8.90;;;5.60;;
5157;SDS011;2598;52.364;9.772;2023-06-10T13:24:39;9.73;;;5.87;;
5157;SDS011;2598;52.364;9.772;2023-06-10T13:27:06;7.53;;;4.90;;
5157;SDS011;2598;52.364;9.772;2023-06-10T13:29:32;7.60;;;5.20;;
5157;SDS011;2598;52.364;9.772;2023-06-10T13:31:58;8.03;;;5.00;;
5157;SDS011;2598;52.364;9.772;2023-06-10T13:34:24;9.70;;;5.47;;
5157;SDS011;2598;52.364;9.772;2023-06-10T13:36:50;11.03;;;6.17;;
5157;SDS011;2598;52.364;9.772;2023-06-10T13:39:16;10.07;;;4.77;;
5157;SDS011;2598;52.364;9.772;2023-06-10T13:41:42;12.80;;;5.20;;
5157;SDS011;2598;52.364;9.772;2023-06-10T13:44:08;9.50;;;5.47;;
5157;SDS011;2598;52.364;9.772;2023-06-10T13:46:34;10.30;;;5.57;;
5157;SDS011;2598;52.364;9.772;2023-06-10T13:49:00;8.07;;;5.83;;
5157;SDS011;2598;52.364;9.772;2023-06-10T13:51:26;9.20;;;5.70;;
5157;SDS011;2598;52.364;9.772;2023-06-10T13:53:52;10.07;;;5.70;;
5157;SDS011;2598;52.364;9.772;2023-06-10T13:56:18;8.80;;;4.97;;
5157;SDS011;2598;52.364;9.772;2023-06-10T13:58:44;12.90;;;5.50;;
5157;SDS011;2598;52.364;9.772;2023-06-10T14:01:10;8.93;;;5.50;;
5157;SDS011;2598;52.364;9.772;2023-06-10T14:03:36;9.27;;;5.87;;
5157;SDS011;2598;52.364;9.772;2023-06-10T14:06:02;10.03;;;5.50;;
5157;SDS011;2598;52.364;9.772;2023-06-10T14:08:28;16.83;;;5.40;;
5157;SDS011;2598;52.364;9.772;2023-06-10T14:10:54;10.20;;;5.00;;
5157;SDS011;2598;52.364;9.772;2023-06-10T14:13:20;8.90;;;5.60;;
5157;SDS011;2598;52.364;9.772;2023-06-10T14:15:47;11.00;;;5.60;;
5157;SDS011;2598;52.364;9.772;2023-06-10T14:18:13;8.23;;;5.10;;
5157;SDS011;2598;52.364;9.772;2023-06-10T14:20:39;9.90;;;5.50;;
5157;SDS011;2598;52.364;9.772;2023-06-10T14:23:05;9.53;;;5.03;;
5157;SDS011;2598;52.364;9.772;2023-06-10T14:25:31;8.33;;;5.70;;
5157;SDS011;2598;52.364;9.772;2023-06-10T14:27:57;10.53;;;5.43;;
5157;SDS011;2598;52.364;9.772;2023-06-10T14:30:23;13.17;;;5.10;;
5157;SDS011;2598;52.364;9.772;2023-06-10T14:32:49;10.23;;;5.53;;
5157;SDS011;2598;52.364;9.772;2023-06-10T14:35:15;8.83;;;5.57;;
5157;SDS011;2598;52.364;9.772;2023-06-10T14:37:41;10.80;;;5.80;;
5157;SDS011;2598;52.364;9.772;2023-06-10T14:40:07;8.43;;;5.30;;
5157;SDS011;2598;52.364;9.772;2023-06-10T14:42:33;11.10;;;5.60;;
5157;SDS011;2598;52.364;9.772;2023-06-10T14:44:59;10.50;;;5.80;;
5157;SDS011;2598;52.364;9.772;2023-06-10T14:47:25;9.83;;;5.70;;
5157;SDS011;2598;52.364;9.772;2023-06-10T14:49:51;12.27;;;5.63;;
5157;SDS011;2598;52.364;9.772;2023-06-10T14:52:17;18.53;;;5.40;;
5157;SDS011;2598;52.364;9.772;2023-06-10T14:54:43;8.50;;;5.83;;
5157;SDS011;2598;52.364;9.772;2023-06-10T14:57:08;8.23;;;5.70;;
5157;SDS011;2598;52.364;9.772;2023-06-10T14:59:35;9.20;;;5.40;;
5157;SDS011;2598;52.364;9.772;2023-06-10T15:02:01;9.87;;;5.50;;
5157;SDS011;2598;52.364;9.772;2023-06-10T15:04:27;7.53;;;5.00;;
5157;SDS011;2598;52.364;9.772;2023-06-10T15:06:53;11.60;;;5.57;;
5157;SDS011;2598;52.364;9.772;2023-06-10T15:09:19;12.30;;;5.47;;